createdAt,value
2019-01-15T00:00:29.542Z,2.60
2019-01-15T00:03:01.899Z,2.60
2019-01-15T00:05:33.115Z,2.60
2019-01-15T00:08:04.498Z,2.70
2019-01-15T00:10:35.730Z,2.70
2019-01-15T00:13:06.937Z,2.70
2019-01-15T00:15:39.196Z,2.70
2019-01-15T00:18:10.413Z,2.70
2019-01-15T00:20:41.772Z,2.70
2019-01-15T00:23:13.097Z,2.70
2019-01-15T00:25:44.466Z,2.70
2019-01-15T00:28:15.668Z,2.70
2019-01-15T00:30:47.088Z,2.70
2019-01-15T00:33:18.372Z,2.70
2019-01-15T00:35:49.624Z,2.70
2019-01-15T00:38:20.952Z,2.80
2019-01-15T00:40:52.469Z,2.80
2019-01-15T00:43:23.716Z,2.80
2019-01-15T00:45:54.965Z,2.80
2019-01-15T00:48:26.213Z,2.80
2019-01-15T00:50:57.434Z,2.80
2019-01-15T00:53:28.673Z,2.80
2019-01-15T00:55:59.923Z,2.80
2019-01-15T00:58:32.191Z,2.80
2019-01-15T01:01:03.433Z,2.80
2019-01-15T01:03:34.700Z,2.70
2019-01-15T01:06:06.208Z,2.70
2019-01-15T01:08:37.461Z,2.70
2019-01-15T01:11:09.740Z,2.70
2019-01-15T01:13:40.981Z,2.70
2019-01-15T01:16:12.269Z,2.60
2019-01-15T01:18:43.517Z,2.60
2019-01-15T01:21:14.745Z,2.60
2019-01-15T01:23:45.992Z,2.60
2019-01-15T01:26:17.241Z,2.60
2019-01-15T01:28:49.672Z,2.60
2019-01-15T01:31:20.934Z,2.60
2019-01-15T01:33:52.180Z,2.60
2019-01-15T01:36:23.430Z,2.60
2019-01-15T01:38:56.433Z,2.60
2019-01-15T01:41:27.700Z,2.60
2019-01-15T01:43:59.020Z,2.60
2019-01-15T01:46:30.281Z,2.50
2019-01-15T01:49:01.494Z,2.50
2019-01-15T01:51:32.738Z,2.50
2019-01-15T01:54:04.169Z,2.40
2019-01-15T01:56:35.418Z,2.40
2019-01-15T01:59:06.624Z,2.40
2019-01-15T02:01:37.996Z,2.40
2019-01-15T02:04:09.209Z,2.40
2019-01-15T02:06:40.772Z,2.40
2019-01-15T02:09:13.006Z,2.30
2019-01-15T02:11:44.270Z,2.30
2019-01-15T02:14:15.520Z,2.20
2019-01-15T02:16:46.836Z,2.20
2019-01-15T02:19:18.080Z,2.20
2019-01-15T02:21:49.341Z,2.20
2019-01-15T02:24:20.893Z,2.20
2019-01-15T02:26:52.362Z,2.20
2019-01-15T02:29:23.713Z,2.20
2019-01-15T02:31:54.926Z,2.20
2019-01-15T02:34:26.183Z,2.10
2019-01-15T02:36:57.410Z,2.10
2019-01-15T02:39:28.683Z,2.10
2019-01-15T02:41:59.917Z,2.10
2019-01-15T02:44:31.199Z,2.20
2019-01-15T02:47:02.406Z,2.10
2019-01-15T02:49:33.634Z,2.20
2019-01-15T02:52:04.952Z,2.20
2019-01-15T02:54:36.215Z,2.20
2019-01-15T02:57:07.434Z,2.10
2019-01-15T02:59:38.702Z,2.20
2019-01-15T03:02:10.017Z,2.20
2019-01-15T03:04:41.679Z,2.20
2019-01-15T03:07:12.885Z,2.20
2019-01-15T03:09:44.359Z,2.20
2019-01-15T03:12:15.597Z,2.20
2019-01-15T03:14:46.862Z,2.20
2019-01-15T03:17:18.122Z,2.20
2019-01-15T03:19:49.533Z,2.20
2019-01-15T03:22:20.791Z,2.10
2019-01-15T03:24:52.062Z,2.10
2019-01-15T03:27:23.323Z,2.20
2019-01-15T03:29:54.651Z,2.20
2019-01-15T03:32:25.894Z,2.20
2019-01-15T03:34:57.461Z,2.20
2019-01-15T03:37:28.721Z,2.20
2019-01-15T03:39:59.993Z,2.20
2019-01-15T03:42:31.253Z,2.20
2019-01-15T03:45:02.504Z,2.20
2019-01-15T03:47:34.117Z,2.20
2019-01-15T03:50:06.510Z,2.20
2019-01-15T03:52:37.861Z,2.20
2019-01-15T03:55:09.636Z,2.20
2019-01-15T03:57:41.037Z,2.20
2019-01-15T04:00:18.481Z,2.20
2019-01-15T04:02:50.114Z,2.20
2019-01-15T04:05:21.467Z,2.20
2019-01-15T04:07:59.790Z,2.20
2019-01-15T04:10:31.032Z,2.20
2019-01-15T04:13:02.313Z,2.20
2019-01-15T04:15:34.541Z,2.20
2019-01-15T04:18:05.909Z,2.20
2019-01-15T04:20:38.146Z,2.20
2019-01-15T04:23:09.573Z,2.20
2019-01-15T04:25:40.806Z,2.20
2019-01-15T04:28:14.092Z,2.20
2019-01-15T04:30:45.424Z,2.20
2019-01-15T04:33:16.691Z,2.20
2019-01-15T04:35:47.921Z,2.20
2019-01-15T04:38:19.161Z,2.20
2019-01-15T04:40:50.438Z,2.20
2019-01-15T04:43:21.685Z,2.20
2019-01-15T04:45:53.037Z,2.30
2019-01-15T04:48:24.306Z,2.30
2019-01-15T04:50:55.717Z,2.30
2019-01-15T04:53:27.039Z,2.30
2019-01-15T04:55:58.286Z,2.30
2019-01-15T04:58:29.546Z,2.30
2019-01-15T05:01:00.774Z,2.30
2019-01-15T05:03:32.269Z,2.30
2019-01-15T05:06:03.512Z,2.30
2019-01-15T05:08:34.929Z,2.30
2019-01-15T05:11:06.204Z,2.30
2019-01-15T05:13:37.477Z,2.30
2019-01-15T05:16:08.886Z,2.30
2019-01-15T05:18:40.304Z,2.30
2019-01-15T05:21:11.581Z,2.30
2019-01-15T05:23:43.826Z,2.30
2019-01-15T05:26:15.077Z,2.30
2019-01-15T05:28:46.328Z,2.30
2019-01-15T05:31:17.642Z,2.30
2019-01-15T05:33:48.971Z,2.30
2019-01-15T05:36:20.321Z,2.40
2019-01-15T05:38:51.708Z,2.40
2019-01-15T05:41:24.050Z,2.40
2019-01-15T05:43:55.381Z,2.40
2019-01-15T05:46:27.043Z,2.40
2019-01-15T05:48:58.385Z,2.40
2019-01-15T05:51:34.129Z,2.50
2019-01-15T05:54:05.658Z,2.50
2019-01-15T05:56:37.010Z,2.50
2019-01-15T05:59:09.154Z,2.50
2019-01-15T06:01:40.546Z,2.50
2019-01-15T06:04:11.861Z,2.50
2019-01-15T06:06:43.308Z,2.50
2019-01-15T06:09:14.518Z,2.50
2019-01-15T06:11:46.877Z,2.50
2019-01-15T06:14:18.162Z,2.50
2019-01-15T06:16:50.479Z,2.50
2019-01-15T06:19:21.729Z,2.60
2019-01-15T06:21:52.984Z,2.70
2019-01-15T06:24:24.212Z,2.60
2019-01-15T06:26:55.478Z,2.60
2019-01-15T06:29:26.719Z,2.60
2019-01-15T06:31:58.044Z,2.60
2019-01-15T06:34:29.717Z,2.60
2019-01-15T06:37:00.932Z,2.60
2019-01-15T06:39:32.231Z,2.60
2019-01-15T06:42:03.648Z,2.60
2019-01-15T06:44:35.224Z,2.60
2019-01-15T06:47:06.571Z,2.60
2019-01-15T06:49:37.799Z,2.60
2019-01-15T06:52:09.204Z,2.60
2019-01-15T06:54:40.552Z,2.70
2019-01-15T06:57:11.808Z,2.60
2019-01-15T06:59:43.025Z,2.70
2019-01-15T07:02:14.393Z,2.70
2019-01-15T07:04:46.038Z,2.60
2019-01-15T07:07:17.283Z,2.70
2019-01-15T07:09:48.536Z,2.70
2019-01-15T07:12:20.208Z,2.70
2019-01-15T07:14:51.452Z,2.70
2019-01-15T07:17:22.702Z,2.70
2019-01-15T07:19:54.086Z,2.70
2019-01-15T07:22:25.376Z,2.70
2019-01-15T07:24:56.580Z,2.70
2019-01-15T07:27:27.850Z,2.70
2019-01-15T07:30:00.154Z,2.70
2019-01-15T07:32:31.605Z,2.70
2019-01-15T07:35:02.960Z,2.80
2019-01-15T07:37:34.253Z,2.70
2019-01-15T07:40:06.256Z,2.80
2019-01-15T07:42:37.488Z,2.70
2019-01-15T07:45:10.605Z,2.80
2019-01-15T07:47:42.332Z,2.80
2019-01-15T07:50:16.142Z,2.80
2019-01-15T07:52:47.992Z,2.80
2019-01-15T07:55:19.366Z,2.80
2019-01-15T07:57:51.736Z,2.80
2019-01-15T08:00:23.109Z,2.80
2019-01-15T08:02:54.588Z,2.80
2019-01-15T08:05:26.164Z,2.80
2019-01-15T08:07:57.535Z,2.80
2019-01-15T08:10:28.824Z,2.80
2019-01-15T08:13:00.115Z,2.90
2019-01-15T08:15:32.521Z,2.80
2019-01-15T08:18:04.047Z,2.80
2019-01-15T08:20:35.662Z,2.80
2019-01-15T08:23:06.882Z,2.90
2019-01-15T08:25:38.580Z,2.90
2019-01-15T08:28:09.796Z,2.90
2019-01-15T08:30:41.039Z,2.90
2019-01-15T08:33:12.303Z,2.90
2019-01-15T08:35:43.629Z,3.00
2019-01-15T08:38:14.837Z,3.00
2019-01-15T08:40:46.273Z,3.00
2019-01-15T08:43:17.821Z,3.00
2019-01-15T08:45:49.084Z,3.10
2019-01-15T08:48:22.104Z,3.10
2019-01-15T08:50:54.185Z,3.10
2019-01-15T08:53:26.542Z,3.10
2019-01-15T08:55:58.850Z,3.20
2019-01-15T08:58:31.156Z,3.20
2019-01-15T09:01:02.393Z,3.20
2019-01-15T09:03:33.649Z,3.30
2019-01-15T09:06:05.007Z,3.30
2019-01-15T09:08:36.273Z,3.30
2019-01-15T09:11:07.524Z,3.30
2019-01-15T09:13:38.710Z,3.40
2019-01-15T09:16:10.269Z,3.40
2019-01-15T09:18:41.600Z,3.50
2019-01-15T09:21:12.876Z,3.50
2019-01-15T09:23:44.155Z,3.50
2019-01-15T09:26:15.446Z,3.60
2019-01-15T09:28:46.849Z,3.60
2019-01-15T09:31:18.058Z,3.70
2019-01-15T09:33:49.336Z,3.70
2019-01-15T09:36:20.586Z,3.80
2019-01-15T09:38:52.336Z,3.80
2019-01-15T09:41:23.594Z,3.80
2019-01-15T09:43:54.904Z,3.90
2019-01-15T09:46:26.964Z,3.90
2019-01-15T09:48:58.244Z,4.00
2019-01-15T09:51:29.493Z,4.10
2019-01-15T09:54:00.709Z,4.20
2019-01-15T09:56:31.968Z,4.30
2019-01-15T09:59:03.888Z,4.30
2019-01-15T10:01:35.243Z,4.30
2019-01-15T10:04:06.509Z,4.30
2019-01-15T10:06:37.761Z,4.30
2019-01-15T10:09:10.168Z,4.30
2019-01-15T10:11:41.606Z,4.40
2019-01-15T10:14:12.801Z,4.40
2019-01-15T10:16:44.286Z,4.40
2019-01-15T10:19:15.538Z,4.40
2019-01-15T10:21:47.587Z,4.50
2019-01-15T10:24:18.858Z,4.40
2019-01-15T10:26:50.076Z,4.50
2019-01-15T10:29:23.849Z,4.50
2019-01-15T10:32:40.669Z,4.60
2019-01-15T10:35:17.212Z,4.60
2019-01-15T10:37:48.625Z,4.60
2019-01-15T10:40:19.878Z,4.60
2019-01-15T10:42:51.577Z,4.60
2019-01-15T10:45:22.927Z,4.60
2019-01-15T10:47:54.164Z,4.60
2019-01-15T10:50:25.387Z,4.60
2019-01-15T10:52:57.752Z,4.70
2019-01-15T10:55:28.993Z,4.70
2019-01-15T10:58:00.386Z,4.80
2019-01-15T11:00:31.650Z,4.80
2019-01-15T11:03:02.848Z,4.80
2019-01-15T11:05:34.189Z,4.80
2019-01-15T11:08:06.048Z,4.80
2019-01-15T11:10:37.299Z,4.90
2019-01-15T11:13:08.667Z,4.90
2019-01-15T11:15:43.477Z,4.90
2019-01-15T11:18:12.794Z,4.90
2019-01-15T11:20:44.170Z,5.00
2019-01-15T11:23:15.420Z,5.00
2019-01-15T11:25:46.646Z,5.00
2019-01-15T11:28:18.814Z,5.00
2019-01-15T11:30:50.029Z,5.10
2019-01-15T11:33:21.294Z,5.10
2019-01-15T11:35:52.498Z,5.10
2019-01-15T11:38:23.747Z,5.20
2019-01-15T11:40:54.966Z,5.20
2019-01-15T11:43:26.201Z,5.30
2019-01-15T11:45:57.421Z,5.30
2019-01-15T11:48:28.669Z,5.40
2019-01-15T11:50:59.869Z,5.30
2019-01-15T11:53:31.984Z,5.30
2019-01-15T11:56:03.213Z,5.30
2019-01-15T11:58:36.291Z,5.40
2019-01-15T12:01:29.299Z,5.40
2019-01-15T12:04:17.215Z,5.40
2019-01-15T12:07:09.189Z,5.50
2019-01-15T12:09:56.691Z,5.50
2019-01-15T12:13:04.713Z,5.50
2019-01-15T12:15:42.720Z,5.50
2019-01-15T12:18:32.885Z,5.50
2019-01-15T12:21:25.753Z,5.60
2019-01-15T12:24:30.773Z,5.60
2019-01-15T12:27:19.174Z,5.60
2019-01-15T12:30:15.273Z,5.60
2019-01-15T12:33:08.265Z,5.60
2019-01-15T12:35:56.760Z,5.70
2019-01-15T12:38:45.676Z,5.60
2019-01-15T12:41:42.007Z,5.60
2019-01-15T12:44:30.802Z,5.70
2019-01-15T12:47:19.584Z,5.70
2019-01-15T12:50:28.092Z,5.70
2019-01-15T12:53:17.658Z,5.70
2019-01-15T12:56:07.384Z,5.70
2019-01-15T12:59:12.854Z,5.70
2019-01-15T13:02:21.194Z,5.70
2019-01-15T13:05:11.282Z,5.70
2019-01-15T13:08:07.503Z,5.70
2019-01-15T13:11:04.240Z,5.70
2019-01-15T13:14:01.901Z,5.70
2019-01-15T13:16:57.878Z,5.70
2019-01-15T13:19:55.355Z,5.70
2019-01-15T13:22:51.363Z,5.70
2019-01-15T13:25:40.490Z,5.70
2019-01-15T13:28:28.620Z,5.70
2019-01-15T13:31:14.244Z,5.70
2019-01-15T13:34:04.441Z,5.70
2019-01-15T13:37:00.752Z,5.80
2019-01-15T13:39:44.164Z,5.80
2019-01-15T13:42:43.077Z,5.80
2019-01-15T13:45:48.506Z,5.80
2019-01-15T13:48:44.381Z,5.80
2019-01-15T13:51:34.394Z,5.80
2019-01-15T13:54:25.085Z,5.80
2019-01-15T13:57:18.217Z,5.80
2019-01-15T14:00:11.382Z,5.80
2019-01-15T14:03:13.385Z,5.80
2019-01-15T14:06:00.533Z,5.80
2019-01-15T14:08:50.661Z,5.80
2019-01-15T14:11:43.643Z,5.80
2019-01-15T14:14:35.141Z,5.80
2019-01-15T14:17:24.478Z,5.80
2019-01-15T14:20:13.180Z,5.90
2019-01-15T14:23:03.294Z,5.90
2019-01-15T14:25:51.057Z,5.80
2019-01-15T14:28:40.554Z,5.90
2019-01-15T14:31:30.870Z,5.90
2019-01-15T14:34:29.964Z,5.90
2019-01-15T14:37:26.105Z,5.90
2019-01-15T14:40:22.347Z,5.90
2019-01-15T14:43:10.924Z,5.80
2019-01-15T14:46:01.044Z,5.80
2019-01-15T14:48:54.190Z,5.80
2019-01-15T14:51:35.461Z,5.80
2019-01-15T14:54:23.147Z,5.90
2019-01-15T14:57:14.237Z,5.90
2019-01-15T15:00:03.082Z,5.90
2019-01-15T15:02:56.069Z,5.80
2019-01-15T15:05:41.558Z,5.90
2019-01-15T15:08:38.082Z,5.80
2019-01-15T15:11:27.131Z,5.80
2019-01-15T15:14:29.461Z,5.80
2019-01-15T15:17:18.561Z,5.80
2019-01-15T15:20:27.157Z,5.80
2019-01-15T15:23:26.193Z,5.80
2019-01-15T15:26:16.314Z,5.80
2019-01-15T15:29:05.776Z,5.80
2019-01-15T15:31:54.853Z,5.80
2019-01-15T15:34:48.176Z,5.80
2019-01-15T15:37:39.312Z,5.80
2019-01-15T15:40:29.065Z,5.80
2019-01-15T15:43:19.230Z,5.80
2019-01-15T15:46:11.272Z,5.80
2019-01-15T15:48:56.552Z,5.80
2019-01-15T15:51:45.069Z,5.80
2019-01-15T15:54:44.212Z,5.80
2019-01-15T15:57:34.421Z,5.80
2019-01-15T16:00:20.932Z,5.80
2019-01-15T16:03:15.057Z,5.80
2019-01-15T16:06:03.557Z,5.80
2019-01-15T16:08:51.454Z,5.70
2019-01-15T16:11:39.917Z,5.70
2019-01-15T16:14:34.146Z,5.70
2019-01-15T16:17:22.985Z,5.70
2019-01-15T16:20:03.612Z,5.70
2019-01-15T16:23:09.725Z,5.70
2019-01-15T16:25:58.630Z,5.80
2019-01-15T16:28:47.253Z,5.80
2019-01-15T16:31:52.273Z,5.80
2019-01-15T16:34:45.549Z,5.70
2019-01-15T16:37:41.780Z,5.70
2019-01-15T16:40:38.604Z,5.80
2019-01-15T16:43:27.544Z,5.80
2019-01-15T16:46:16.343Z,5.80
2019-01-15T16:49:14.772Z,5.90
2019-01-15T16:52:05.098Z,5.90
2019-01-15T16:55:01.066Z,5.80
2019-01-15T16:58:00.548Z,5.80
2019-01-15T17:00:53.430Z,5.70
2019-01-15T17:03:42.764Z,5.70
2019-01-15T17:06:31.876Z,5.70
2019-01-15T17:09:13.600Z,5.70
2019-01-15T17:11:57.300Z,5.70
2019-01-15T17:14:57.161Z,5.60
2019-01-15T17:17:51.549Z,5.70
2019-01-15T17:20:51.088Z,5.60
2019-01-15T17:23:37.018Z,5.70
2019-01-15T17:26:33.814Z,5.60
2019-01-15T17:29:17.172Z,5.60
2019-01-15T17:32:25.270Z,5.60
2019-01-15T17:35:27.554Z,5.60
2019-01-15T17:38:10.165Z,5.60
2019-01-15T17:40:52.651Z,5.50
2019-01-15T17:43:41.200Z,5.60
2019-01-15T17:46:41.058Z,5.50
2019-01-15T17:49:26.215Z,5.60
2019-01-15T17:52:16.300Z,5.70
2019-01-15T17:55:02.621Z,5.60
2019-01-15T17:57:52.892Z,5.60
2019-01-15T18:00:37.205Z,5.60
2019-01-15T18:03:27.313Z,5.60
2019-01-15T18:06:17.450Z,5.50
2019-01-15T18:09:07.597Z,5.60
2019-01-15T18:12:01.644Z,5.60
2019-01-15T18:14:51.905Z,5.50
2019-01-15T18:17:32.227Z,5.50
2019-01-15T18:20:11.151Z,5.50
2019-01-15T18:22:59.957Z,5.50
2019-01-15T18:25:48.898Z,5.50
2019-01-15T18:28:37.578Z,5.60
2019-01-15T18:31:30.692Z,5.50
2019-01-15T18:34:23.855Z,5.60
2019-01-15T18:37:11.697Z,5.50
2019-01-15T18:40:04.650Z,5.50
2019-01-15T18:42:51.277Z,5.60
2019-01-15T18:45:29.081Z,5.60
2019-01-15T18:48:34.352Z,5.60
2019-01-15T18:51:41.211Z,5.50
2019-01-15T18:54:43.855Z,5.50
2019-01-15T18:57:24.820Z,5.50
2019-01-15T19:00:15.618Z,5.50
2019-01-15T19:03:05.821Z,5.50
2019-01-15T19:05:51.354Z,5.50
2019-01-15T19:08:46.404Z,5.50
2019-01-15T19:11:42.437Z,5.50
2019-01-15T19:14:31.366Z,5.50
2019-01-15T19:17:30.782Z,5.50
2019-01-15T19:20:19.730Z,5.50
2019-01-15T19:23:10.786Z,5.50
2019-01-15T19:26:03.775Z,5.50
2019-01-15T19:28:52.656Z,5.50
2019-01-15T19:31:52.314Z,5.50
2019-01-15T19:34:46.202Z,5.50
2019-01-15T19:37:34.926Z,5.50
2019-01-15T19:40:28.628Z,5.50
2019-01-15T19:43:25.019Z,5.50
2019-01-15T19:46:13.821Z,5.50
2019-01-15T19:49:06.741Z,5.50
2019-01-15T19:51:48.300Z,5.40
2019-01-15T19:54:47.444Z,5.40
2019-01-15T19:57:55.414Z,5.40
2019-01-15T20:00:49.629Z,5.40
2019-01-15T20:03:39.926Z,5.40
2019-01-15T20:06:39.013Z,5.40
2019-01-15T20:09:22.883Z,5.40
2019-01-15T20:12:14.768Z,5.40
2019-01-15T20:15:14.155Z,5.40
2019-01-15T20:18:07.357Z,5.40
2019-01-15T20:20:52.467Z,5.40
2019-01-15T20:23:37.515Z,5.40
2019-01-15T20:26:21.256Z,5.40
2019-01-15T20:29:11.189Z,5.40
2019-01-15T20:32:13.701Z,5.40
2019-01-15T20:35:19.245Z,5.40
2019-01-15T20:38:10.122Z,5.40
2019-01-15T20:40:58.660Z,5.40
2019-01-15T20:43:50.097Z,5.40
2019-01-15T20:46:47.117Z,5.40
2019-01-15T20:49:30.892Z,5.40
2019-01-15T20:52:26.937Z,5.40
2019-01-15T20:55:17.898Z,5.40
2019-01-15T20:58:08.096Z,5.40
2019-01-15T21:01:01.214Z,5.40
2019-01-15T21:03:49.996Z,5.40
2019-01-15T21:06:46.348Z,5.40
2019-01-15T21:09:56.233Z,5.40
2019-01-15T21:12:46.397Z,5.40
2019-01-15T21:15:37.392Z,5.30
2019-01-15T21:18:30.501Z,5.30
2019-01-15T21:21:18.331Z,5.30
2019-01-15T21:24:07.497Z,5.30
2019-01-15T21:27:01.803Z,5.30
2019-01-15T21:29:53.117Z,5.30
2019-01-15T21:32:41.845Z,5.30
2019-01-15T21:35:33.553Z,5.30
2019-01-15T21:38:32.537Z,5.30
2019-01-15T21:41:22.696Z,5.30
2019-01-15T21:44:16.257Z,5.20
2019-01-15T21:47:16.832Z,5.20
2019-01-15T21:50:12.976Z,5.20
2019-01-15T21:53:18.241Z,5.20
2019-01-15T21:55:57.906Z,5.20
2019-01-15T21:58:46.382Z,5.20
2019-01-15T22:01:45.544Z,5.20
2019-01-15T22:04:38.460Z,5.20
2019-01-15T22:07:30.582Z,5.20
2019-01-15T22:10:20.656Z,5.20
2019-01-15T22:13:14.544Z,5.20
2019-01-15T22:16:10.741Z,5.20
2019-01-15T22:19:11.033Z,5.20
2019-01-15T22:22:07.395Z,5.20
2019-01-15T22:25:16.702Z,5.20
2019-01-15T22:28:09.317Z,5.20
2019-01-15T22:30:58.161Z,5.20
2019-01-15T22:33:46.164Z,5.20
2019-01-15T22:36:35.062Z,5.10
2019-01-15T22:39:31.733Z,5.10
2019-01-15T22:42:36.964Z,5.20
2019-01-15T22:45:47.181Z,5.10
2019-01-15T22:48:35.934Z,5.20
2019-01-15T22:51:38.008Z,5.10
2019-01-15T22:54:46.297Z,5.10
2019-01-15T22:57:38.735Z,5.10
2019-01-15T23:00:39.838Z,5.10
2019-01-15T23:03:29.981Z,5.10
2019-01-15T23:06:15.441Z,5.10
2019-01-15T23:09:17.490Z,5.10
2019-01-15T23:12:25.903Z,5.10
2019-01-15T23:15:14.317Z,5.10
2019-01-15T23:18:04.442Z,5.10
2019-01-15T23:20:54.560Z,5.10
2019-01-15T23:23:56.826Z,5.10
2019-01-15T23:26:46.933Z,5.20
2019-01-15T23:29:41.520Z,5.20
2019-01-15T23:32:34.537Z,5.10
2019-01-15T23:35:24.900Z,5.10
2019-01-15T23:38:21.145Z,5.10
2019-01-15T23:41:17.640Z,5.10
2019-01-15T23:44:06.353Z,5.00
2019-01-15T23:47:05.509Z,5.00
2019-01-15T23:49:58.521Z,5.00
2019-01-15T23:52:47.257Z,5.10
2019-01-15T23:55:52.318Z,5.00
2019-01-15T23:58:42.117Z,5.00
